Detall de PIREP

Printer-friendly versionPDF version

[2015/01/24 10:52:00]
Flight IATA:CT3102
Pilot Number:044
Company ICAO:CAT
Aircraft Type:B463/A
PAX:97
Aircraft Registration:PAX
Departing Airport: LIEA
Destination Airport: LEPA
Alternate Airport:LEMH
Online: VATSIM
Route:SUPUX UZ924 RIPAL UM603 MORSS
Flight Level:F280
No Slew and time accel
No pause
Crash detect
Detect pilot in Cockpit between each 30 and 45 minutes
10:52 Zero fuel Weight: 76340 Lbs, Fuel Weight: 10339 Lbs
10:52 VATSIM:LIEA 241020Z 34011KT 9999 BKN020 13/10 Q1012
10:52 VATSIM:LEPA 241030Z 31008KT 270V330 9999 FEW022 13/06 Q1021 NOSIG
10:52 Parking Brakes off
11:01 Take-off
11:01 Take off Weight: 86243 Lbs
11:01 Wind: 330º @ 013 Knots Heading: 020º
11:01 POS N40º 37´ 50´´ E008º 17´ 23´´
11:01 Flaps:1 at 163 Knots
11:01 Gear Up: 157 Knots
11:05 Flaps:0 at 190 Knots
11:15 TOC
11:15 Fuel Weight: 7932 Lb
11:16 Wind:332º@042 Knots Heading: 268º Ground Speed: 311 Knots Altitude 27975 ft
11:31 Wind:345º@079 Knots Heading: 278º Ground Speed: 401 Knots Altitude 28152 ft
11:31 TOD
11:31 Fuel Weight: 6308 Lb
11:46 Wind:331º@024 Knots Heading: 269º Ground Speed: 185 Knots Altitude 4455 ft
11:50 Flaps:1 at 179 Knots
11:53 Flaps:2 at 178 Knots
11:54 Flaps:3 at 176 Knots
11:54 Gear Down: 173 Knots
11:55 Flaps:4 at 146 Knots
11:57 TouchDown:Rate -215 ft/min Speed: 125 Knots
11:57 VATSIM:LEPA 241130Z 31009KT 290V350 9999 FEW025 14/05 Q1021 NOSIG
11:57 Land
11:57 Wind:315º@009 Knots
11:57 Heading: 232º
11:57 Flight Duration: 00:56
11:57 Landing Weight: 81470 Lbs
11:57 POS N39º 32´ 54´´ E002º 44´ 48´´
11:59 Parking brakes on
11:59 Block to Block Duration: 01:07
11:59 Final Fuel: 5088 Lbls
11:59 Spent Fuel: 5251 Lbls
11:59 Flight Length: 274 NM
11:59 TOD Land Length: 111 NM

Exportar CSV

Powered by Drupal - Modified by Danger4k